x

Los Angeles Pier F, Ca - 9410670 (pfxc1) Weather Station

3:18 - Sun 24th May 2015 All times are PDT. -7 hours from GMT.

  • Wind
    14mph, 16mph gusts
  • Luft Temp 67°f
  • Sea Pressure 1014.5mb
  • Los Angeles Pier F, Ca - 9410670
  • Los Angeles Pier F, Ca - 9410670

More Historic Weather Station data

Upgrade to MSW Pro to gain access to the past 30 days of data for over 8000 Wavebouys and Weather Stations around the globe.

Join Pro

Comparision Forecast

View Surf forecast
   
So 05/24 3:18 14 16 mph 1014.5mb 67f
3:06 13 16 mph 1014.5mb 67f
2:48 14 16 mph 1014.7mb 66f
2:24 15 17 mph 1014.8mb 66f
2:06 14 17 mph 1015mb 66f
2:00 14 18 mph 1015mb 66f
1:48 14 15 mph 1015.1mb 66f
1:30 11 15 mph 1015.3mb 67f
1:24 13 15 mph 1015.3mb 67f
1:18 13 14 mph 1015.3mb 67f
1:12 11 13 mph 1015.4mb 67f
1:06 11 14 mph 1015.5mb 68f
12:48 10 11 mph 1015.7mb 67f
12:42 9
mph
1015.7mb 68f
12:24 9 10 mph 1015.7mb 69f
12:18 9 10 mph 1016mb 69f
12:12 9 10 mph 1015.9mb 69f
11:42 9 10 mph 1015.8mb 68f
11:30 8 9 mph 1016mb 68f
11:18 9 10 mph 1016.3mb 68f
11:12 9 10 mph 1016.3mb 66f
10:42 9
mph
1016.1mb 65f
10:36 9 11 mph 1016.1mb 65f
10:24 6 8 mph 1016mb 64f
10:18 6 7 mph 1015.9mb 64f
10:12 6 7 mph 1015.9mb 64f
10:06 5 6 mph 1015.9mb 66f
10:00 5 6 mph 1016mb 66f
9:54 5 7 mph 1016.1mb 66f
9:42 5 7 mph 1016.1mb 65f
9:36 7 8 mph 1016.2mb 65f
9:30 7 8 mph 1016.2mb 65f
9:18 6 8 mph 1016.2mb 64f
9:12 5 9 mph 1016.1mb 64f
9:06 5 8 mph - 64f
9:00 1 2 mph - 65f
8:54 1 2 mph - 65f
8:30 3 5 mph 1016.2mb 63f
8:24 3 5 mph 1016.1mb 62f
8:18 3 5 mph 1016.1mb 62f
8:06 5 6 mph 1015.9mb 62f
7:42 7
mph
1015.8mb 62f
7:24 7
mph
1015.7mb 62f
7:06 3 5 mph 1015.6mb 62f
6:54 3
mph
1015.5mb 62f
6:48 3 5 mph 1015.4mb 62f
6:42 2
mph
1015.3mb 62f
6:30 2 3 mph 1015.2mb 61f
6:24 1 2 mph 1015.1mb 61f
6:18 2 3 mph 1015.1mb 61f
6:12 3 5 mph 1015.2mb 61f
6:06 5 6 mph 1015.1mb 61f
5:54 5 6 mph 1015mb 61f
5:48 5
mph
1015mb 61f
5:24 5
mph
1015mb 61f
5:18 3 5 mph 1014.9mb 61f
4:54 1 2 mph 1014.7mb 61f
4:48 2 3 mph 1014.9mb 61f
4:36 3 5 mph 1014.9mb 61f
4:24 2 3 mph 1014.6mb 61f
4:12 2 3 mph 1014.6mb 61f
4:06 2 3 mph 1014.6mb 61f
3:54 5 6 mph 1014.7mb 61f
3:48 5 6 mph 1014.6mb 61f
3:42 5 6 mph 1014.5mb 61f
3:30 6 7 mph 1014.5mb 61f
3:24 7 8 mph 1014.9mb 61f
3:06 1 2 mph 1014.8mb 61f
2:42 1 3 mph 1015mb 61f
2:30 2 5 mph 1015.1mb 60f
2:24 3
mph
1015.2mb 60f
2:06 3 5 mph 1015mb 60f
1:54 6
mph
1014.8mb 60f
1:48 2 5 mph 1014.9mb 60f
1:42 2
mph
1015.1mb 60f
1:30 2 3 mph 1015.2mb 60f
1:12 5 6 mph 1015.4mb 60f
1:06 3 5 mph 1015.4mb 60f
1:00 3 5 mph 1015.4mb 60f
12:54 3 5 mph 1015.4mb 60f
12:42 3 5 mph 1015.5mb 60f
12:30 5
mph
1015.6mb 61f
12:06 6 7 mph 1015.9mb 60f
Sa 05/23 11:54 8 9 mph 1015.9mb 60f
11:48 6 8 mph 1015.9mb 60f
11:42 5 6 mph 1016.1mb 60f
11:18 3 5 mph 1016.3mb 60f
11:12 5 7 mph 1016.3mb 60f
11:06 7
mph
1016.2mb 60f
10:54 7
mph
- 60f
10:42 7
mph
1016.5mb 60f
10:36 7 8 mph 1016.5mb 60f
10:30 7 8 mph 1016.5mb 60f
10:24 7
mph
1016.6mb 60f
10:18 7 8 mph 1016.6mb 60f
10:06 7 8 mph 1016.6mb 60f
9:54 7 8 mph 1016.6mb 61f
9:48 5 7 mph 1016.6mb 61f
9:42 5 6 mph 1016.6mb 61f
9:24 6 7 mph 1016.4mb 61f
9:18 6 8 mph 1016.4mb 61f
9:06 6 8 mph 1016.4mb 61f
8:54 7 9 mph 1016.4mb 61f
8:48 7 9 mph 1016.4mb 61f
8:42 6 9 mph 1016.4mb 61f
8:24 9 11 mph 1016.4mb 61f
8:18 9 13 mph 1016.4mb 61f
8:12 8 14 mph 1016.2mb 61f
8:06 9 13 mph 1016.2mb 61f
7:42 10 14 mph 1016mb 62f
7:24 9 13 mph 1015.8mb 63f
7:18 13 15 mph 1015.8mb 63f
7:12 14 18 mph 1015.8mb 63f
7:06 14 17 mph 1015.8mb 63f
6:54 14 15 mph 1015.6mb 64f
6:48 14 15 mph 1015.5mb 64f
6:36 9 11 mph 1015.5mb 65f
6:30 9 11 mph 1015.6mb 65f
6:12 10 13 mph 1015.8mb 65f
6:00 10 13 mph 1015.7mb 65f
5:54 9 13 mph 1015.8mb 66f
5:48 9 14 mph 1015.8mb 66f
5:42 9 13 mph 1015.8mb 65f
5:30 9 13 mph 1015.8mb 65f
5:24 10 15 mph 1015.8mb 66f
5:12 11 15 mph 1015.9mb 65f
5:00 11 14 mph 1015.9mb 66f
4:54 13 16 mph 1015.8mb 66f
4:48 11 15 mph 1015.9mb 66f
4:42 14 16 mph 1016mb 66f
4:36 14 16 mph 1016.1mb 66f
4:18 14 16 mph 1016.2mb 66f
4:06 15 16 mph 1016.3mb 66f
4:00 15 16 mph 1016.4mb 66f
3:54 15 16 mph 1016.5mb 66f
3:42 15 16 mph 1016.6mb 67f
3:36 13 14 mph 1016.6mb 65f
3:24 11 13 mph 1016.6mb 65f
3:18 10 11 mph 1016.7mb 65f
3:12 10 11 mph 1016.7mb 65f
3:06 10 11 mph 1016.6mb 65f
3:00 10 13 mph 1016.8mb 67f
2:54 11
mph
1016.9mb 67f
2:48 13 14 mph 1017mb 67f
2:42 13 14 mph 1017mb 67f
2:36 13 14 mph 1017mb 67f
2:30 13 15 mph 1017.2mb 67f
2:24 13 15 mph 1017.3mb 67f
2:18 13 14 mph 1017.3mb 66f
2:12 13 15 mph 1017.2mb 66f
2:00 13 14 mph 1017.4mb 67f
1:48 13 14 mph 1017.6mb 67f
1:42 11 14 mph 1017.6mb 67f
1:30 11 13 mph 1017.6mb 67f
1:24 13 14 mph 1017.6mb 67f
1:06 14 15 mph 1017.7mb 67f
12:54 13 15 mph 1017.9mb 66f
12:42 11 13 mph 1017.9mb 67f
12:36 11 13 mph 1017.8mb 67f
11:54 9
mph
1018mb 68f
11:48 9 10 mph 1018.1mb 68f
11:42 9 10 mph 1018.3mb 68f
11:36 10 11 mph 1018.3mb 67f
11:24 9 10 mph 1018.3mb 66f
11:18 9 10 mph 1018.4mb 67f
11:00 7 8 mph 1018.3mb 65f
10:54 7 8 mph 1018.5mb 64f
10:48 7 8 mph 1018.2mb 62f
10:42 7 8 mph 1018.1mb 62f
10:18 7
mph
- 63f
10:06 6 7 mph - 62f
10:00 6 7 mph - 62f
9:48 6
mph
- 62f
9:36 5 6 mph - 63f
9:30 3 5 mph - 64f
9:18 5 6 mph - 64f
9:06 6 7 mph - 64f
9:00 6 7 mph - 64f
8:48 7
mph
- 63f
8:42 6 7 mph - 63f
8:30 5 6 mph - 63f
8:24 5
mph
- 63f
8:06 5 6 mph - 63f
8:00 5
mph
- 64f
7:48 2 3 mph - 62f
7:42 2 3 mph 1018.3mb 62f
7:36 2 3 mph 1018.1mb 62f
7:24 2 5 mph 1018mb 61f
7:12 2 3 mph 1017.9mb 61f
7:06 2 3 mph 1017.8mb 61f
7:00 2 3 mph 1017.8mb 61f
6:42 2
mph
1017.7mb 60f
6:36 2 3 mph 1017.6mb 60f
6:30 1 2 mph 1017.7mb 60f
6:24 2 3 mph 1017.6mb 60f
6:12 2 3 mph 1017.5mb 60f
6:06 2 3 mph 1017.5mb 60f
5:48 1 2 mph 1017.3mb 60f
5:42 2 3 mph 1017.3mb 60f
5:36 3 5 mph 1017.2mb 60f
5:24 5
mph
1017.2mb 59f
5:12 3
mph
1017.1mb 60f
5:06 3 5 mph 1017.1mb 60f
4:48 2 3 mph 1017.2mb 59f
4:42 2 3 mph 1017.2mb 60f
4:36 2 3 mph 1017.2mb 60f
4:24 2 3 mph 1017.2mb 60f
4:18 1 2 mph 1017.2mb 59f
4:12  -  1 mph 1017.2mb 59f
4:06 1 2 mph 1017.2mb 59f
4:00 1 2 mph 1017.2mb 59f
3:54 1 2 mph 1017.2mb 59f
3:48 2
mph
1017.2mb 59f
3:42  -  2 mph 1017.2mb 59f
3:36 2
mph
1017.2mb 59f
3:30 2 3 mph 1017.2mb 59f
3:24 2 3 mph 1017.1mb 59f
3:18 3
mph
1017.1mb 59f
3:12 2 5 mph 1017.1mb 59f
3:06 2 3 mph 1017mb 59f
3:00 3 5 mph 1017mb 59f
2:54 3 6 mph 1017mb 59f
2:48  -  1 mph 1017mb 59f
2:42 2 3 mph 1017mb 60f
2:30 2 3 mph 1017.1mb 60f
2:24 3
mph
1017.2mb 60f
2:18 3 5 mph 1017.1mb 60f
2:12 5
mph
1017.2mb 60f
2:00 6 7 mph 1017.2mb 61f
1:54 5 6 mph 1017.2mb 61f
1:48 5 6 mph 1017.3mb 61f
1:42 3 5 mph 1017.3mb 61f
1:30 3 5 mph 1017.3mb 61f
1:12 5 6 mph 1017.4mb 61f
12:54 5 6 mph 1017.3mb 61f
12:48 2 3 mph 1017.3mb 61f
12:42 2 3 mph 1017.3mb 61f
12:36 3 5 mph 1017.3mb 61f
12:30 5
mph
1017.3mb 61f
12:18 5 7 mph 1017.2mb 61f
12:06 7 9 mph 1017.2mb 61f
Fr 05/22 11:54 6 8 mph 1017.4mb 61f
11:48 7 9 mph - 61f
11:42 7 9 mph - 61f
11:36 8 10 mph - 61f
11:30 7 9 mph 1017.5mb 61f
11:24 6 8 mph 1017.5mb 61f
11:12 6 7 mph 1017.6mb 61f
10:42 8 10 mph 1017.7mb 61f
10:36 7 9 mph 1017.7mb 61f
10:30 6 7 mph 1017.7mb 62f
10:24 6 8 mph 1017.6mb 62f
10:18 6 7 mph 1017.6mb 62f
9:48 7 9 mph 1017.6mb 62f
9:36 7 9 mph 1017.5mb 62f
9:30 7 9 mph 1017.5mb 62f
9:24 7 9 mph 1017.5mb 62f
9:12 7 9 mph 1017.4mb 62f
9:00 7 9 mph 1017.3mb 62f
8:54 7 9 mph 1017.2mb 62f
8:42 6 10 mph 1017mb 62f
8:24 8 10 mph 1016.9mb 62f
8:12 8 10 mph 1016.8mb 62f
7:36 9 13 mph 1016.4mb 62f
7:30 10 14 mph 1016.4mb 62f
7:24 11 15 mph 1016.4mb 62f
7:12 11 15 mph 1016.3mb 62f
7:06 11 15 mph 1016.2mb 62f
7:00 10 15 mph 1016.1mb 62f
6:54 10 15 mph 1016.1mb 62f
6:48 11 16 mph 1016mb 62f
6:42 11 16 mph 1015.9mb 62f
6:36 11 15 mph 1015.9mb 62f
6:30 10 15 mph 1015.9mb 62f
6:24 13 16 mph 1015.9mb 63f
6:18 13 17 mph 1015.8mb 63f
6:12 13 16 mph 1015.8mb 63f
6:06 13 16 mph 1015.8mb 64f
5:54 11 15 mph 1015.8mb 64f
5:48 13 17 mph 1015.8mb 64f
5:30 13 18 mph 1015.8mb 65f
5:24 13 17 mph 1015.7mb 65f
5:18 13 16 mph 1015.8mb 65f
5:12 11 16 mph 1015.7mb 64f
4:54 13 16 mph 1015.5mb 64f
4:48 13 16 mph 1015.7mb 65f
4:42 13 17 mph 1015.7mb 64f
4:36 14 18 mph 1015.6mb 64f
4:24 13 21 mph 1015.6mb 64f
4:18 14 18 mph 1015.5mb 64f
4:00 15 20 mph 1015.5mb 65f
3:54 15 21 mph 1015.5mb 65f
3:48 16 18 mph 1015.5mb 65f
3:18 15 18 mph 1015.6mb 66f
3:06 15 18 mph 1015.8mb 66f
2:54 14 16 mph 1015.8mb 66f
2:48 16 21 mph 1015.8mb 65f
2:42 14 17 mph 1015.8mb 66f
2:24 13 17 mph 1016mb 64f
2:18 14 17 mph 1015.9mb 64f
2:12 14 20 mph 1015.9mb 64f
2:06 14 16 mph 1016mb 64f
1:54 14 17 mph 1016.1mb 64f
1:42 11 16 mph 1016.2mb 64f
1:36 14 17 mph 1016.2mb 63f
1:18 13 17 mph 1016.2mb 63f
1:00 13 17 mph 1016.2mb 63f
12:48 10 15 mph 1016.4mb 62f
12:42 13 17 mph 1016.4mb 62f
12:36 11 14 mph 1016.4mb 62f
12:30 10 15 mph 1016.4mb 62f
12:24 10 15 mph 1016.4mb 62f
12:18 11 15 mph 1016.4mb 62f
12:12 13 17 mph 1016.4mb 62f
12:06 14 16 mph 1016.3mb 62f
12:00 14 16 mph 1016.3mb 62f
11:48 14 17 mph 1016.5mb 63f
11:42 15 18 mph 1016.4mb 63f
11:24 13 16 mph 1016.4mb 63f
11:18 13 16 mph 1016.3mb 63f
11:06 13 15 mph 1016.1mb 63f
10:54 14 16 mph 1016.1mb 65f
10:48 14 15 mph 1016.1mb 64f
10:42 13 15 mph 1015.8mb 65f
10:36 14 16 mph 1016.1mb 65f
10:30 13 15 mph 1016.1mb 65f
10:06 9 11 mph 1016.1mb 63f
10:00 7 11 mph 1016mb 63f
9:54 7 11 mph 1016mb 63f
9:48 8 10 mph 1016mb 63f
9:30 7 8 mph 1016.1mb 62f
9:24 7 9 mph 1016mb 62f
9:06 8 14 mph 1016mb 61f
8:54 7 9 mph 1015.9mb 62f
8:48 8 9 mph 1015.9mb 62f
8:24 9 11 mph 1015.5mb 61f
8:12 7 10 mph 1015.5mb 61f
8:06 6 8 mph 1015.4mb 61f
8:00 6 9 mph 1015.4mb 60f
7:54 5 6 mph 1015.5mb 60f
7:42 7 9 mph 1015.3mb 61f
7:30 7 8 mph 1015.3mb 60f
7:18 7 9 mph 1015.3mb 60f
7:12 8 10 mph 1015.3mb 60f
6:54 6 10 mph 1015.2mb 60f
6:48 6 9 mph 1015.2mb 60f
6:36 5 6 mph 1015.1mb 60f
6:24 5 6 mph 1015mb 60f
6:18 5 7 mph 1014.9mb 60f
6:12 6 7 mph 1014.8mb 60f
6:06 7 9 mph 1014.8mb 60f
5:54 8 11 mph 1014.7mb 60f
5:42 9 13 mph 1014.6mb 60f
5:36 6 8 mph 1014.6mb 60f
5:30 6 8 mph 1014.6mb 60f
5:18 8 11 mph 1014.7mb 60f
5:12 8 10 mph 1014.6mb 60f
5:06 6 7 mph 1014.6mb 60f
5:00 5 7 mph 1014.6mb 60f
4:42 7 8 mph 1014.6mb 60f
4:36 6 8 mph 1014.5mb 60f
4:12 8 10 mph 1014.6mb 60f
4:06 8 9 mph 1014.6mb 60f
3:42 10 14 mph 1014.5mb 60f
3:36 8 13 mph 1014.5mb 60f
3:24 10 14 mph 1014.3mb 60f
3:18 8 13 mph 1014.4mb 60f
3:06 8 11 mph 1014.5mb 60f
2:54 10 14 mph 1014.4mb 60f
2:48 9 13 mph 1014.5mb 60f
2:42 9 15 mph 1014.5mb 60f
2:30 7 9 mph 1014.5mb 60f
2:24 7 10 mph 1014.5mb 60f
2:12 7 9 mph 1014.6mb 60f
1:48 8 13 mph 1014.6mb 60f
1:42 9 14 mph 1014.7mb 60f
1:36 8 10 mph 1014.8mb 60f
1:18 7 10 mph 1014.9mb 60f
1:06 6 8 mph 1015mb 60f
12:54 6 8 mph 1015mb 60f
12:48 6 8 mph 1014.9mb 60f
12:24 7 9 mph 1015mb 60f
12:18 9 13 mph 1015mb 61f
12:12 9 13 mph 1015mb 61f
12:06 8 14 mph 1015mb 61f
Do 05/21 11:36 9 11 mph 1014.9mb 61f
11:30 9 13 mph 1015mb 61f
11:24 8 11 mph 1014.9mb 61f
11:12 8 11 mph 1015mb 61f
11:06 8 10 mph 1015mb 61f
10:42 7 11 mph 1015mb 61f
10:36 6 8 mph 1015mb 61f
10:24 7 9 mph 1015mb 61f
10:18 6 9 mph 1015mb 61f
10:06 6 8 mph 1014.9mb 61f
9:54 5 6 mph 1014.7mb 61f
9:48 7 9 mph 1014.7mb 61f
9:42 6 9 mph 1014.6mb 61f
9:36 6 9 mph 1014.5mb 61f
9:24 9 10 mph 1014.5mb 61f
9:12 8 10 mph 1014.3mb 61f
8:54 8 11 mph 1014.2mb 62f
8:42 8 13 mph 1014.2mb 62f
8:36 8 15 mph 1014.1mb 62f
8:30 9 13 mph 1014mb 62f
8:24 8 14 mph 1013.9mb 62f
8:18 10 14 mph 1013.9mb 62f
8:12 9 15 mph 1013.9mb 62f
8:06 8 11 mph 1013.9mb 62f
7:54 8 13 mph 1013.7mb 62f
7:48 10 14 mph 1013.6mb 62f
7:42 10 14 mph 1013.5mb 62f
7:30 11 15 mph 1013.4mb 62f
7:24 11 15 mph 1013.4mb 62f
7:18 13 20 mph 1013.3mb 62f
7:12 13 17 mph 1013.3mb 63f
6:54 11 16 mph 1013.2mb 63f
6:48 13 18 mph 1013.1mb 64f
6:30 11 15 mph 1013.1mb 64f
6:24 13 17 mph 1013mb 64f
6:18 13 16 mph 1013.1mb 65f
6:12 11 16 mph 1013mb 64f
6:06 13 17 mph 1012.8mb 65f
5:48 10 15 mph 1012.8mb 65f
5:42 14 18 mph 1012.7mb 64f
5:36 14 18 mph 1012.6mb 65f
5:30 13 16 mph 1012.6mb 65f
5:24 11 15 mph 1012.7mb 66f
5:06 14 17 mph 1012.7mb 66f
5:00 14 16 mph 1012.7mb 67f
4:48 11 15 mph 1012.7mb 67f
4:42 9 13 mph 1012.8mb 68f
4:36 10 13 mph 1012.7mb 67f
4:12 10 13 mph 1013.1mb 67f
4:06 11 14 mph 1013mb 67f
3:54 10 14 mph 1013.3mb 68f
3:48 10 14 mph 1013.4mb 67f
3:36 11 16 mph 1013.3mb 67f
3:30 10 14 mph 1013.4mb 66f
3:18 11 14 mph 1013.6mb 66f
2:48 11 17 mph 1013.9mb 66f
2:30 14 16 mph 1013.9mb 65f
2:18 14 16 mph 1013.9mb 65f
2:06 14 16 mph 1014mb 65f
1:54 13 15 mph 1014mb 66f
1:48 13 15 mph 1014mb 66f
1:42 11 14 mph 1014mb 66f
1:36 11 14 mph 1014.1mb 66f
1:24 10 13 mph 1014.1mb 66f
1:18 10 13 mph 1014.2mb 66f
1:12 11 13 mph 1014.2mb 65f
1:06 11 13 mph 1014.3mb 66f
12:54 11 13 mph 1014.4mb 66f
12:48 10 11 mph 1014.4mb 66f
12:24 9 11 mph 1014.3mb 63f
12:12 9
mph
1014.3mb 63f
11:42 8 10 mph 1014.2mb 62f
11:30 9 10 mph 1014.1mb 62f
11:24 9
mph
1014.2mb 62f
11:18 8 9 mph 1014.1mb 62f
11:12 8 9 mph 1014mb 62f
10:54 7 8 mph 1013.7mb 63f
10:48 7 8 mph 1014.1mb 64f
10:42 7 8 mph 1013.8mb 62f
10:36 7 8 mph 1013.6mb 63f
10:12 8 9 mph 1013.9mb 65f
10:06 8 9 mph 1013.8mb 64f
10:00 8 9 mph 1014mb 64f
9:54 8
mph
1013.9mb 63f
9:48 8
mph
1013.8mb 62f
9:24 8 9 mph 1014mb 64f
9:12 9
mph
1014.1mb 64f
9:06 8 9 mph 1014.1mb 64f
9:00 7 8 mph 1014mb 64f
8:48 5 7 mph - 63f
8:42 3 5 mph - 62f
8:36 3 5 mph - 63f
8:30 3 5 mph 1014mb 62f
8:06 3 5 mph 1014mb 60f
7:54 3 7 mph 1013.9mb 60f
7:42 5 6 mph 1013.9mb 60f
7:36 5 6 mph 1013.9mb 60f
7:24 3 6 mph 1013.8mb 60f
7:12 3 5 mph 1013.7mb 59f
7:06 3 5 mph 1013.7mb 59f
7:00 5 6 mph 1013.6mb 59f
6:54 5 6 mph 1013.6mb 59f
6:42 5 6 mph 1013.5mb 59f
6:36 3
mph
1013.4mb 59f
6:24 3 5 mph 1013.3mb 59f
6:18 3 5 mph 1013.2mb 59f
6:06 3
mph
1013.1mb 59f
5:54 3 5 mph 1013.1mb 59f
5:48 3 5 mph 1013.1mb 59f
5:42 5 6 mph 1013.1mb 59f
5:36 5 6 mph 1013.1mb 59f
5:30 3 5 mph 1013.1mb 59f
5:24 3 6 mph 1013.1mb 59f
5:18 6 7 mph 1013.1mb 59f
5:12 5 7 mph 1013.1mb 59f
5:06 5 7 mph 1013.1mb 59f
4:42 5 7 mph 1013.2mb 59f
4:36 6 7 mph 1013.1mb 59f
4:30 6 7 mph 1013.1mb 59f
4:24 6 7 mph 1013.1mb 59f
4:18 6 7 mph 1013.1mb 59f
4:06 6 8 mph 1013.2mb 60f
3:48 7 9 mph 1013.2mb 59f
3:36 8 10 mph 1013.1mb 59f
3:30 6 8 mph 1013.1mb 59f
3:24 8 9 mph 1013.1mb 59f
3:18 6 8 mph 1013.1mb 59f
3:06 7 9 mph 1013.2mb 60f
3:00 6 9 mph 1013.2mb 60f
2:54 7 10 mph 1013.2mb 60f
2:48 6 9 mph 1013.3mb 60f
2:36 6 8 mph 1013.3mb 60f
2:24 7 8 mph 1013.4mb 60f
2:18 6 8 mph 1013.5mb 60f
2:12 6 8 mph 1013.5mb 60f
2:06 6 7 mph 1013.6mb 60f
2:00 5 6 mph 1013.6mb 60f
1:54 5 6 mph 1013.7mb 60f
1:48 5 6 mph 1013.7mb 60f
1:24 5 6 mph 1013.8mb 60f
1:18 5 6 mph 1013.9mb 60f
1:12 5 6 mph 1013.9mb 60f
1:06 3 5 mph 1013.9mb 60f
1:00 5
mph
1014mb 60f
12:54 3 6 mph 1014.1mb 60f
12:48 5 7 mph 1014.2mb 60f
12:36 6 8 mph 1014.2mb 60f
12:30 5 6 mph 1014.2mb 60f
Mi 05/20 11:24 6 7 mph 1014.2mb 60f